createdAt,value
2018-12-01T00:02:27.712Z,36.67
2018-12-01T00:05:16.011Z,38.23
2018-12-01T00:07:50.527Z,35.77
2018-12-01T00:10:29.592Z,35.20
2018-12-01T00:13:02.232Z,41.40
2018-12-01T00:15:32.852Z,41.40
2018-12-01T00:18:03.476Z,38.03
2018-12-01T00:20:36.485Z,36.13
2018-12-01T00:23:08.463Z,34.03
2018-12-01T00:25:39.003Z,35.40
2018-12-01T00:28:10.963Z,40.53
2018-12-01T00:30:41.646Z,37.87
2018-12-01T00:33:12.127Z,37.30
2018-12-01T00:35:42.592Z,33.10
2018-12-01T00:38:13.253Z,42.57
2018-12-01T00:40:43.751Z,40.60
2018-12-01T00:43:14.399Z,34.83
2018-12-01T00:45:44.934Z,35.50
2018-12-01T00:48:16.770Z,37.20
2018-12-01T00:50:47.361Z,36.23
2018-12-01T00:53:17.994Z,38.70
2018-12-01T00:55:48.527Z,35.83
2018-12-01T00:58:19.113Z,34.63
2018-12-01T01:00:50.554Z,31.27
2018-12-01T01:03:21.189Z,30.03
2018-12-01T01:05:51.803Z,39.33
2018-12-01T01:08:22.481Z,31.47
2018-12-01T01:10:53.049Z,33.63
2018-12-01T01:13:23.672Z,33.70
2018-12-01T01:15:54.377Z,34.20
2018-12-01T01:18:25.065Z,37.63
2018-12-01T01:20:55.692Z,32.13
2018-12-01T01:23:26.400Z,33.17
2018-12-01T01:25:57.068Z,33.03
2018-12-01T01:28:27.982Z,36.53
2018-12-01T01:30:58.638Z,34.53
2018-12-01T01:33:31.197Z,29.97
2018-12-01T01:36:02.708Z,33.53
2018-12-01T01:38:34.197Z,31.60
2018-12-01T01:41:07.667Z,32.40
2018-12-01T01:43:38.669Z,38.70
2018-12-01T01:46:09.130Z,36.67
2018-12-01T01:48:39.908Z,32.37
2018-12-01T01:51:10.457Z,35.87
2018-12-01T01:53:41.040Z,34.17
2018-12-01T01:56:11.664Z,35.50
2018-12-01T01:58:42.258Z,42.23
2018-12-01T02:01:14.025Z,35.27
2018-12-01T02:03:46.277Z,32.10
2018-12-01T02:06:18.400Z,32.70
2018-12-01T02:08:49.282Z,31.33
2018-12-01T02:11:19.964Z,32.37
2018-12-01T02:13:50.578Z,33.00
2018-12-01T02:16:21.090Z,32.23
2018-12-01T02:18:51.736Z,33.33
2018-12-01T02:21:22.514Z,34.00
2018-12-01T02:23:53.119Z,41.10
2018-12-01T02:26:24.532Z,31.67
2018-12-01T02:28:56.009Z,28.17
2018-12-01T02:31:26.559Z,33.97
2018-12-01T02:33:57.273Z,32.33
2018-12-01T02:36:27.925Z,46.20
2018-12-01T02:38:58.489Z,33.80
2018-12-01T02:41:29.159Z,37.77
2018-12-01T02:44:10.052Z,38.17
2018-12-01T02:46:51.009Z,30.67
2018-12-01T02:49:21.509Z,31.60
2018-12-01T02:51:52.059Z,33.87
2018-12-01T02:54:22.639Z,33.27
2018-12-01T02:56:54.598Z,35.57
2018-12-01T02:59:25.112Z,34.30
2018-12-01T03:01:56.202Z,40.53
2018-12-01T03:04:26.782Z,30.07
2018-12-01T03:06:57.238Z,29.57
2018-12-01T03:09:30.686Z,33.23
2018-12-01T03:12:01.295Z,36.60
2018-12-01T03:14:31.834Z,32.10
2018-12-01T03:17:02.452Z,36.27
2018-12-01T03:19:33.939Z,39.03
2018-12-01T03:22:04.579Z,43.37
2018-12-01T03:24:35.141Z,37.43
2018-12-01T03:27:05.758Z,38.30
2018-12-01T03:29:36.463Z,37.70
2018-12-01T03:32:07.757Z,36.17
2018-12-01T03:34:38.331Z,35.07
2018-12-01T03:37:08.952Z,28.23
2018-12-01T03:39:39.523Z,33.97
2018-12-01T03:42:10.020Z,29.00
2018-12-01T03:44:40.556Z,30.15
2018-12-01T03:47:11.154Z,33.70
2018-12-01T03:49:42.852Z,30.20
2018-12-01T03:52:16.520Z,32.50
2018-12-01T03:54:48.335Z,39.97
2018-12-01T03:57:18.892Z,28.87
2018-12-01T03:59:49.478Z,31.03
2018-12-01T04:02:20.154Z,32.23
2018-12-01T04:04:51.513Z,31.80
2018-12-01T04:07:23.790Z,30.47
2018-12-01T04:09:54.400Z,27.43
2018-12-01T04:12:24.983Z,25.17
2018-12-01T04:14:55.491Z,28.87
2018-12-01T04:17:26.069Z,26.47
2018-12-01T04:19:56.734Z,27.63
2018-12-01T04:22:27.238Z,26.83
2018-12-01T04:24:58.744Z,34.87
2018-12-01T04:27:29.411Z,39.73
2018-12-01T04:30:05.618Z,47.57
2018-12-01T04:32:36.182Z,47.40
2018-12-01T04:35:07.073Z,39.50
2018-12-01T04:37:37.846Z,47.57
2018-12-01T04:40:11.213Z,42.63
2018-12-01T04:42:43.476Z,31.77
2018-12-01T04:45:14.077Z,26.07
2018-12-01T04:47:44.704Z,29.77
2018-12-01T04:50:18.511Z,27.93
2018-12-01T04:52:49.927Z,24.57
2018-12-01T04:55:22.125Z,25.20
2018-12-01T04:57:52.654Z,28.73
2018-12-01T05:00:23.510Z,23.93
2018-12-01T05:02:54.118Z,25.47
2018-12-01T05:05:31.009Z,24.33
2018-12-01T05:08:01.511Z,28.93
2018-12-01T05:10:32.356Z,26.90
2018-12-01T05:13:02.913Z,27.53
2018-12-01T05:15:37.323Z,30.50
2018-12-01T05:18:09.366Z,28.33
2018-12-01T05:20:42.042Z,29.80
2018-12-01T05:23:13.924Z,37.63
2018-12-01T05:25:44.607Z,55.70
2018-12-01T05:28:15.688Z,52.73
2018-12-01T05:30:46.313Z,41.67
2018-12-01T05:33:16.780Z,118.97
2018-12-01T05:35:47.357Z,100.20
2018-12-01T05:38:17.845Z,70.00
2018-12-01T05:40:52.766Z,55.03
2018-12-01T05:43:24.805Z,66.70
2018-12-01T05:45:58.822Z,54.70
2018-12-01T05:48:30.760Z,51.30
2018-12-01T05:51:01.549Z,51.23
2018-12-01T05:53:32.526Z,42.23
2018-12-01T05:56:04.057Z,35.00
2018-12-01T05:58:34.951Z,31.43
2018-12-01T06:01:05.553Z,49.37
2018-12-01T06:03:36.092Z,41.80
2018-12-01T06:06:07.107Z,44.63
2018-12-01T06:08:37.665Z,50.83
2018-12-01T06:11:08.263Z,38.83
2018-12-01T06:13:38.803Z,45.03
2018-12-01T06:16:09.387Z,43.70
2018-12-01T06:18:39.909Z,49.53
2018-12-01T06:21:14.757Z,49.23
2018-12-01T06:23:47.570Z,50.17
2018-12-01T06:26:23.034Z,40.97
2018-12-01T06:28:53.590Z,90.00
2018-12-01T06:31:24.505Z,85.63
2018-12-01T06:34:10.051Z,60.10
2018-12-01T06:36:41.312Z,27.60
2018-12-01T06:39:18.256Z,87.67
2018-12-01T06:41:48.821Z,204.93
2018-12-01T06:44:19.853Z,90.90
2018-12-01T06:46:50.908Z,41.17
2018-12-01T06:49:21.439Z,58.40
2018-12-01T06:51:51.978Z,50.23
2018-12-01T06:54:22.483Z,29.87
2018-12-01T06:56:53.101Z,37.90
2018-12-01T06:59:23.721Z,33.60
2018-12-01T07:01:54.300Z,32.00
2018-12-01T07:04:24.823Z,37.40
2018-12-01T07:06:55.417Z,47.37
2018-12-01T07:09:25.934Z,43.00
2018-12-01T07:11:58.467Z,21.10
2018-12-01T07:14:29.043Z,25.03
2018-12-01T07:16:59.714Z,39.63
2018-12-01T07:19:30.369Z,32.70
2018-12-01T07:22:01.006Z,24.90
2018-12-01T07:24:31.645Z,18.90
2018-12-01T07:27:02.303Z,27.60
2018-12-01T07:29:32.905Z,26.07
2018-12-01T07:32:03.687Z,20.03
2018-12-01T07:34:34.329Z,215.77
2018-12-01T07:39:53.334Z,74.53
2018-12-01T07:42:23.967Z,60.03
2018-12-01T07:44:54.565Z,38.23
2018-12-01T07:47:34.213Z,37.57
2018-12-01T07:50:05.799Z,18.50
2018-12-01T07:52:36.631Z,21.83
2018-12-01T07:55:08.336Z,27.53
2018-12-01T07:57:40.253Z,86.00
2018-12-01T08:00:14.181Z,89.27
2018-12-01T08:02:45.992Z,34.53
2018-12-01T08:05:17.636Z,24.50
2018-12-01T08:07:48.850Z,37.27
2018-12-01T08:10:20.294Z,50.77
2018-12-01T08:12:51.307Z,32.57
2018-12-01T08:15:21.789Z,24.37
2018-12-01T08:17:53.297Z,24.87
2018-12-01T08:20:23.860Z,22.37
2018-12-01T08:22:54.516Z,24.27
2018-12-01T08:25:25.065Z,22.40
2018-12-01T08:27:57.043Z,18.73
2018-12-01T08:30:28.984Z,16.03
2018-12-01T08:32:59.821Z,17.50
2018-12-01T08:35:31.194Z,16.07
2018-12-01T08:38:01.910Z,20.20
2018-12-01T08:40:33.342Z,28.97
2018-12-01T08:43:03.887Z,26.17
2018-12-01T08:45:34.568Z,27.73
2018-12-01T08:48:05.163Z,30.40
2018-12-01T08:50:35.851Z,35.03
2018-12-01T08:53:06.685Z,31.70
2018-12-01T08:55:37.302Z,38.13
2018-12-01T08:58:07.989Z,35.57
2018-12-01T09:00:41.391Z,32.07
2018-12-01T09:03:17.489Z,37.50
2018-12-01T09:05:48.154Z,37.10
2018-12-01T09:08:18.757Z,33.37
2018-12-01T09:10:49.353Z,37.20
2018-12-01T09:13:19.902Z,36.83
2018-12-01T09:15:50.375Z,30.43
2018-12-01T09:18:21.053Z,30.70
2018-12-01T09:20:51.646Z,34.00
2018-12-01T09:23:23.047Z,29.80
2018-12-01T09:25:53.607Z,34.73
2018-12-01T09:28:24.174Z,35.03
2018-12-01T09:30:54.684Z,35.47
2018-12-01T09:33:25.430Z,36.40
2018-12-01T09:35:56.070Z,30.80
2018-12-01T09:38:26.609Z,33.43
2018-12-01T09:40:57.232Z,23.77
2018-12-01T09:43:27.740Z,22.53
2018-12-01T09:45:58.432Z,23.13
2018-12-01T09:48:28.991Z,24.80
2018-12-01T09:50:59.651Z,39.90
2018-12-01T09:53:30.178Z,34.57
2018-12-01T09:56:00.811Z,32.10
2018-12-01T09:58:31.430Z,33.10
2018-12-01T10:01:02.719Z,33.80
2018-12-01T10:03:32.661Z,31.23
2018-12-01T10:06:03.250Z,36.57
2018-12-01T10:08:33.770Z,36.47
2018-12-01T10:11:04.380Z,32.07
2018-12-01T10:13:35.063Z,36.60
2018-12-01T10:16:05.665Z,32.40
2018-12-01T10:18:36.177Z,24.70
2018-12-01T10:21:06.763Z,19.47
2018-12-01T10:23:37.447Z,22.57
2018-12-01T10:26:07.984Z,26.03
2018-12-01T10:28:38.653Z,25.30
2018-12-01T10:31:09.319Z,14.93
2018-12-01T10:33:39.794Z,14.50
2018-12-01T10:36:10.385Z,15.23
2018-12-01T10:38:40.847Z,13.90
2018-12-01T10:41:11.515Z,17.60
2018-12-01T10:43:42.185Z,17.80
2018-12-01T10:46:12.727Z,18.20
2018-12-01T10:48:43.212Z,25.93
2018-12-01T10:51:13.828Z,27.50
2018-12-01T10:53:44.709Z,28.43
2018-12-01T10:56:15.295Z,27.90
2018-12-01T10:58:45.889Z,31.20
2018-12-01T11:01:21.427Z,23.60
2018-12-01T11:03:52.032Z,24.57
2018-12-01T11:06:22.733Z,26.17
2018-12-01T11:08:53.405Z,28.17
2018-12-01T11:11:23.989Z,30.30
2018-12-01T11:13:54.787Z,59.87
2018-12-01T11:16:25.262Z,31.07
2018-12-01T11:18:55.810Z,28.17
2018-12-01T11:21:26.486Z,26.33
2018-12-01T11:23:57.222Z,27.83
2018-12-01T11:26:32.838Z,29.17
2018-12-01T11:29:03.615Z,28.73
2018-12-01T11:31:34.182Z,35.73
2018-12-01T11:34:06.431Z,34.63
2018-12-01T11:36:37.084Z,34.77
2018-12-01T11:39:09.636Z,28.07
2018-12-01T11:41:40.198Z,34.63
2018-12-01T11:44:10.858Z,49.47
2018-12-01T11:46:41.521Z,41.97
2018-12-01T11:49:12.089Z,32.17
2018-12-01T11:51:42.730Z,29.73
2018-12-01T11:54:13.426Z,39.97
2018-12-01T11:56:44.034Z,49.10
2018-12-01T11:59:14.645Z,52.07
2018-12-01T12:01:45.277Z,44.27
2018-12-01T12:04:17.443Z,41.87
2018-12-01T12:06:48.028Z,36.10
2018-12-01T12:09:18.691Z,51.73
2018-12-01T12:11:49.223Z,54.00
2018-12-01T12:14:20.613Z,37.20
2018-12-01T12:16:51.246Z,38.23
2018-12-01T12:19:21.980Z,45.57
2018-12-01T12:21:52.710Z,36.50
2018-12-01T12:24:23.241Z,37.83
2018-12-01T12:26:53.802Z,40.70
2018-12-01T12:29:25.801Z,79.23
2018-12-01T12:31:56.493Z,35.87
2018-12-01T12:34:27.312Z,31.73
2018-12-01T12:36:57.864Z,48.80
2018-12-01T12:39:28.484Z,36.93
2018-12-01T12:41:59.604Z,38.43
2018-12-01T12:44:30.236Z,31.13
2018-12-01T12:47:00.889Z,32.97
2018-12-01T12:49:32.063Z,39.97
2018-12-01T12:52:02.581Z,63.73
2018-12-01T12:54:33.366Z,39.93
2018-12-01T12:57:03.912Z,43.50
2018-12-01T12:59:34.583Z,47.03
2018-12-01T13:02:05.152Z,50.20
2018-12-01T13:04:35.860Z,51.13
2018-12-01T13:07:06.607Z,32.57
2018-12-01T13:09:37.281Z,31.10
2018-12-01T13:12:08.780Z,75.30
2018-12-01T13:14:39.479Z,49.43
2018-12-01T13:17:10.089Z,39.80
2018-12-01T13:19:40.692Z,29.77
2018-12-01T13:22:11.325Z,41.87
2018-12-01T13:24:42.360Z,39.20
2018-12-01T13:27:13.116Z,32.57
2018-12-01T13:29:45.602Z,41.77
2018-12-01T13:32:16.331Z,46.90
2018-12-01T13:34:47.199Z,29.90
2018-12-01T13:37:18.432Z,31.47
2018-12-01T13:39:49.023Z,29.73
2018-12-01T13:42:19.735Z,25.80
2018-12-01T13:44:50.421Z,37.77
2018-12-01T13:47:21.105Z,30.03
2018-12-01T13:49:51.758Z,29.17
2018-12-01T13:52:22.509Z,27.80
2018-12-01T13:54:53.058Z,26.43
2018-12-01T13:57:23.733Z,26.63
2018-12-01T13:59:55.593Z,29.50
2018-12-01T14:02:26.224Z,31.87
2018-12-01T14:04:57.188Z,28.57
2018-12-01T14:07:27.968Z,60.07
2018-12-01T14:09:59.207Z,32.43
2018-12-01T14:12:35.381Z,50.00
2018-12-01T14:15:16.725Z,34.13
2018-12-01T14:17:57.071Z,29.77
2018-12-01T14:20:28.273Z,32.97
2018-12-01T14:22:58.870Z,33.20
2018-12-01T14:25:29.532Z,37.53
2018-12-01T14:28:04.283Z,47.03
2018-12-01T14:30:34.870Z,49.93
2018-12-01T14:33:05.532Z,47.37
2018-12-01T14:35:38.283Z,60.07
2018-12-01T14:38:12.981Z,52.60
2018-12-01T14:40:46.083Z,57.97
2018-12-01T14:43:16.692Z,49.07
2018-12-01T14:45:52.520Z,48.53
2018-12-01T14:48:23.842Z,68.07
2018-12-01T14:50:54.536Z,63.17
2018-12-01T14:53:25.237Z,83.43
2018-12-01T14:55:55.898Z,112.23
2018-12-01T14:58:27.220Z,97.07
2018-12-01T15:00:59.470Z,110.80
2018-12-01T15:03:30.479Z,91.73
2018-12-01T15:06:01.066Z,85.73
2018-12-01T15:08:31.683Z,93.60
2018-12-01T15:11:02.309Z,98.43
2018-12-01T15:13:33.043Z,106.03
2018-12-01T15:16:03.796Z,80.23
2018-12-01T15:18:34.479Z,65.87
2018-12-01T15:21:05.212Z,77.63
2018-12-01T15:23:35.934Z,157.50
2018-12-01T15:26:06.603Z,109.80
2018-12-01T15:28:37.227Z,76.10
2018-12-01T15:31:07.923Z,77.97
2018-12-01T15:33:38.778Z,66.03
2018-12-01T15:36:09.548Z,64.67
2018-12-01T15:38:40.259Z,58.20
2018-12-01T15:41:11.028Z,59.00
2018-12-01T15:43:41.716Z,56.27
2018-12-01T15:46:12.410Z,64.50
2018-12-01T15:48:43.051Z,68.07
2018-12-01T15:51:13.876Z,68.27
2018-12-01T15:53:44.541Z,65.27
2018-12-01T15:56:15.223Z,56.47
2018-12-01T15:58:45.882Z,60.13
2018-12-01T16:01:16.692Z,57.50
2018-12-01T16:06:30.749Z,62.73
2018-12-01T16:09:01.463Z,61.63
2018-12-01T16:11:32.156Z,49.57
2018-12-01T16:14:03.012Z,54.67
2018-12-01T16:16:35.291Z,49.97
2018-12-01T16:19:06.612Z,51.30
2018-12-01T16:21:37.241Z,50.70
2018-12-01T16:24:07.906Z,67.17
2018-12-01T16:26:38.411Z,70.83
2018-12-01T16:29:08.935Z,76.57
2018-12-01T16:31:39.558Z,78.33
2018-12-01T16:34:10.108Z,73.60
2018-12-01T16:36:40.888Z,80.77
2018-12-01T16:39:12.038Z,76.50
2018-12-01T16:41:42.661Z,78.90
2018-12-01T16:44:13.337Z,80.87
2018-12-01T16:46:44.005Z,81.57
2018-12-01T16:49:14.807Z,84.83
2018-12-01T16:51:45.531Z,84.57
2018-12-01T16:54:16.347Z,81.73
2018-12-01T16:56:46.967Z,75.67
2018-12-01T16:59:17.576Z,93.30
2018-12-01T17:01:48.222Z,98.93
2018-12-01T17:04:18.788Z,79.10
2018-12-01T17:06:49.497Z,64.33
2018-12-01T17:09:20.161Z,59.10
2018-12-01T17:11:50.806Z,67.30
2018-12-01T17:14:21.487Z,58.53
2018-12-01T17:16:52.142Z,60.70
2018-12-01T17:19:22.734Z,58.77
2018-12-01T17:21:53.401Z,52.83
2018-12-01T17:24:23.938Z,57.07
2018-12-01T17:26:54.581Z,51.70
2018-12-01T17:29:25.210Z,57.27
2018-12-01T17:31:55.733Z,57.50
2018-12-01T17:34:26.288Z,58.77
2018-12-01T17:36:57.016Z,51.37
2018-12-01T17:39:27.544Z,61.07
2018-12-01T17:41:59.960Z,47.67
2018-12-01T17:44:30.476Z,53.03
2018-12-01T17:47:01.080Z,52.97
2018-12-01T17:49:32.676Z,52.63
2018-12-01T17:52:03.413Z,51.27
2018-12-01T17:54:34.008Z,48.50
2018-12-01T17:57:04.816Z,49.00
2018-12-01T17:59:35.457Z,44.10
2018-12-01T18:02:06.173Z,49.93
2018-12-01T18:04:36.743Z,64.87
2018-12-01T18:07:07.761Z,75.37
2018-12-01T18:09:38.272Z,71.57
2018-12-01T18:12:08.890Z,43.73
2018-12-01T18:14:39.480Z,44.37
2018-12-01T18:17:10.031Z,75.67
2018-12-01T18:19:40.689Z,64.17
2018-12-01T18:22:11.303Z,76.10
2018-12-01T18:24:41.942Z,91.97
2018-12-01T18:27:12.459Z,76.00
2018-12-01T18:29:43.070Z,60.73
2018-12-01T18:32:13.655Z,53.00
2018-12-01T18:34:44.177Z,47.43
2018-12-01T18:37:14.918Z,47.37
2018-12-01T18:39:45.485Z,71.00
2018-12-01T18:42:16.086Z,44.57
2018-12-01T18:44:46.644Z,47.80
2018-12-01T18:47:17.330Z,60.73
2018-12-01T18:49:47.840Z,39.60
2018-12-01T18:52:18.419Z,88.43
2018-12-01T18:54:48.931Z,67.00
2018-12-01T18:57:19.579Z,61.43
2018-12-01T18:59:50.086Z,53.93
2018-12-01T19:02:20.669Z,52.10
2018-12-01T19:04:51.277Z,40.93
2018-12-01T19:10:02.690Z,51.33
2018-12-01T19:12:33.288Z,70.30
2018-12-01T19:15:03.826Z,84.33
2018-12-01T19:17:34.321Z,59.77
2018-12-01T19:20:05.390Z,57.07
2018-12-01T19:22:36.084Z,44.57
2018-12-01T19:25:11.837Z,43.73
2018-12-01T19:27:42.731Z,52.63
2018-12-01T19:30:16.252Z,59.20
2018-12-01T19:32:48.312Z,46.03
2018-12-01T19:35:19.164Z,48.53
2018-12-01T19:37:52.865Z,53.67
2018-12-01T19:40:28.710Z,56.60
2018-12-01T19:42:59.004Z,64.50
2018-12-01T19:45:29.599Z,51.47
2018-12-01T19:48:00.427Z,45.50
2018-12-01T19:50:33.538Z,64.27
2018-12-01T19:53:04.127Z,60.90
2018-12-01T19:55:34.843Z,48.77
2018-12-01T19:58:14.967Z,43.50
2018-12-01T20:00:47.437Z,51.30
2018-12-01T20:03:19.340Z,70.10
2018-12-01T20:05:49.964Z,59.77
2018-12-01T20:08:21.781Z,57.60
2018-12-01T20:10:57.610Z,53.53
2018-12-01T20:13:30.589Z,51.40
2018-12-01T20:16:04.345Z,45.97
2018-12-01T20:18:34.994Z,43.87
2018-12-01T20:21:06.085Z,42.33
2018-12-01T20:23:36.676Z,49.70
2018-12-01T20:26:07.221Z,51.67
2018-12-01T20:28:37.898Z,32.63
2018-12-01T20:31:08.469Z,34.00
2018-12-01T20:33:39.121Z,25.77
2018-12-01T20:36:12.697Z,16.57
2018-12-01T20:38:50.582Z,28.70
2018-12-01T20:41:21.219Z,28.70
2018-12-01T20:43:51.951Z,33.97
2018-12-01T20:46:22.490Z,37.70
2018-12-01T20:48:54.584Z,27.10
2018-12-01T20:51:25.227Z,24.97
2018-12-01T20:54:02.504Z,25.77
2018-12-01T20:56:35.293Z,23.83
2018-12-01T20:59:06.207Z,19.47
2018-12-01T21:01:36.848Z,29.03
2018-12-01T21:04:07.576Z,36.47
2018-12-01T21:06:38.186Z,26.57
2018-12-01T21:09:11.453Z,21.47
2018-12-01T21:11:41.910Z,28.77
2018-12-01T21:14:12.555Z,35.00
2018-12-01T21:16:43.157Z,33.17
2018-12-01T21:19:13.885Z,34.17
2018-12-01T21:21:44.487Z,32.80
2018-12-01T21:24:15.135Z,38.20
2018-12-01T21:26:45.766Z,107.10
2018-12-01T21:29:16.661Z,159.17
2018-12-01T21:31:47.274Z,175.43
2018-12-01T21:34:17.949Z,227.63
2018-12-01T21:36:48.618Z,240.20
2018-12-01T21:39:19.141Z,280.27
2018-12-01T21:41:49.735Z,122.00
2018-12-01T21:44:20.397Z,53.40
2018-12-01T21:46:51.099Z,35.93
2018-12-01T21:49:21.861Z,32.80
2018-12-01T21:51:52.451Z,34.90
2018-12-01T21:54:23.151Z,39.20
2018-12-01T21:56:53.806Z,55.60
2018-12-01T21:59:24.428Z,50.93
2018-12-01T22:01:55.097Z,48.03
2018-12-01T22:04:25.672Z,120.57
2018-12-01T22:07:00.492Z,197.53
2018-12-01T22:09:31.227Z,161.57
2018-12-01T22:12:01.919Z,96.73
2018-12-01T22:14:32.505Z,71.97
2018-12-01T22:17:03.103Z,75.90
2018-12-01T22:19:33.720Z,61.23
2018-12-01T22:22:04.385Z,68.27
2018-12-01T22:24:35.544Z,45.20
2018-12-01T22:27:06.158Z,42.40
2018-12-01T22:29:37.990Z,39.53
2018-12-01T22:32:08.642Z,39.83
2018-12-01T22:34:39.340Z,49.30
2018-12-01T22:37:09.873Z,53.47
2018-12-01T22:39:40.388Z,43.30
2018-12-01T22:42:11.915Z,61.20
2018-12-01T22:44:42.478Z,84.73
2018-12-01T22:47:13.175Z,89.77
2018-12-01T22:49:45.581Z,75.87
2018-12-01T22:52:16.237Z,54.33
2018-12-01T22:54:46.835Z,41.33
2018-12-01T22:57:17.369Z,40.53
2018-12-01T22:59:47.962Z,35.07
2018-12-01T23:02:18.521Z,35.97
2018-12-01T23:04:53.282Z,42.03
2018-12-01T23:07:23.950Z,47.50
2018-12-01T23:09:54.657Z,36.83
2018-12-01T23:12:25.212Z,37.50
2018-12-01T23:14:57.160Z,29.07
2018-12-01T23:17:27.788Z,29.33
2018-12-01T23:19:58.345Z,34.67
2018-12-01T23:22:28.911Z,39.50
2018-12-01T23:25:00.143Z,38.77
2018-12-01T23:27:30.656Z,35.50
2018-12-01T23:30:01.355Z,29.03
2018-12-01T23:32:31.970Z,36.50
2018-12-01T23:35:02.503Z,33.57
2018-12-01T23:37:33.000Z,28.67
2018-12-01T23:40:04.016Z,34.10
2018-12-01T23:42:34.578Z,32.17
2018-12-01T23:45:06.473Z,29.23
2018-12-01T23:47:36.975Z,35.60
2018-12-01T23:50:12.001Z,38.37
2018-12-01T23:52:42.847Z,30.53
2018-12-01T23:55:14.847Z,42.03
2018-12-01T23:57:45.528Z,28.17
